Time;durP1;ratioP1;P1;durP2;ratioP2;P2;SDS_P1;SDS_P2;PMS_P1;PMS_P2;Temp;Humidity;BMP_temperature;BMP_pressure;BME280_temperature;BME280_humidity;BME280_pressure;Samples;Min_cycle;Max_cycle;Signal;HPM_P1;HPM_P2
2022/10/08 00:00:53;;;;;;;10.95;4.30;;;22.10;57.60;;;;;;6247547;28;20041;-80
2022/10/08 00:03:55;;;;;;;9.10;3.90;;;22.00;58.00;;;;;;6230644;28;20049;-78
2022/10/08 00:06:56;;;;;;;7.95;4.78;;;22.00;58.40;;;;;;6240027;28;20116;-77
2022/10/08 00:09:57;;;;;;;11.30;4.93;;;22.00;58.60;;;;;;6247750;28;20037;-77
2022/10/08 00:13:00;;;;;;;8.43;5.00;;;22.00;58.80;;;;;;6231973;28;20128;-78
2022/10/08 00:16:02;;;;;;;9.10;4.15;;;21.90;58.90;;;;;;6247928;28;20044;-78
2022/10/08 00:19:10;;;;;;;12.40;4.07;;;21.90;59.10;;;;;;6234845;28;20049;-78
2022/10/08 00:22:12;;;;;;;16.33;4.82;;;21.90;59.10;;;;;;6241422;28;20048;-78
2022/10/08 00:25:13;;;;;;;9.93;4.55;;;21.90;59.20;;;;;;6228597;28;20093;-78
2022/10/08 00:28:14;;;;;;;11.88;5.05;;;21.90;59.30;;;;;;6241317;28;20114;-78
2022/10/08 00:31:24;;;;;;;10.32;5.05;;;21.90;59.50;;;;;;6247897;28;20037;-78
2022/10/08 00:34:26;;;;;;;13.60;4.22;;;21.80;59.60;;;;;;6227074;28;20048;-79
2022/10/08 00:37:27;;;;;;;10.32;5.32;;;21.80;59.70;;;;;;6236419;28;20478;-78
2022/10/08 00:40:30;;;;;;;7.80;4.50;;;21.80;59.90;;;;;;6239478;28;20079;-79
2022/10/08 00:43:50;;;;;;;14.60;5.13;;;21.80;60.10;;;;;;6249011;28;20084;-79
2022/10/08 00:46:52;;;;;;;6.95;5.18;;;21.70;60.20;;;;;;6246272;28;20041;-77
2022/10/08 00:49:57;;;;;;;9.23;5.07;;;21.70;60.10;;;;;;6237327;28;20048;-77
2022/10/08 00:53:02;;;;;;;7.45;4.63;;;21.70;60.10;;;;;;6221943;28;20058;-78
2022/10/08 00:56:03;;;;;;;11.70;4.97;;;21.70;60.20;;;;;;6223221;28;20371;-77
2022/10/08 00:59:06;;;;;;;13.13;4.78;;;21.70;60.20;;;;;;6223199;28;20068;-78
2022/10/08 01:02:08;;;;;;;9.30;5.03;;;21.70;60.30;;;;;;6220580;28;20030;-78
2022/10/08 01:05:13;;;;;;;7.00;4.68;;;21.70;60.30;;;;;;6217984;28;20038;-77
2022/10/08 01:08:17;;;;;;;7.97;5.07;;;21.70;60.30;;;;;;6257600;28;20136;-77
2022/10/08 01:11:32;;;;;;;18.77;5.30;;;21.70;60.40;;;;;;6246630;28;20094;-78
2022/10/08 01:14:52;;;;;;;6.97;4.85;;;21.70;60.50;;;;;;6247393;28;20125;-77
2022/10/08 01:18:47;;;;;;;13.05;5.20;;;21.70;60.50;;;;;;6218860;28;20030;-77
2022/10/08 01:22:08;;;;;;;11.93;4.68;;;21.70;60.40;;;;;;6185469;28;20181;-78
2022/10/08 01:25:32;;;;;;;15.98;5.30;;;21.70;60.40;;;;;;6215256;28;20029;-77
2022/10/08 01:29:01;;;;;;;13.43;5.45;;;21.70;60.30;;;;;;6208960;28;20031;-78
2022/10/08 01:32:12;;;;;;;6.85;5.22;;;21.70;60.30;;;;;;6195717;28;20550;-77
2022/10/08 01:35:24;;;;;;;7.30;4.82;;;21.70;60.40;;;;;;6239988;28;20363;-77
2022/10/08 01:38:32;;;;;;;9.98;4.93;;;21.60;60.40;;;;;;6241583;28;20044;-78
2022/10/08 01:41:33;;;;;;;11.60;4.93;;;21.60;60.40;;;;;;6242557;28;20041;-78
2022/10/08 01:44:46;;;;;;;8.35;5.22;;;21.70;60.60;;;;;;6201243;28;20042;-78
2022/10/08 01:47:50;;;;;;;11.73;5.15;;;21.70;60.70;;;;;;6217993;28;20060;-78
2022/10/08 01:51:15;;;;;;;12.00;5.13;;;21.60;60.70;;;;;;6194216;28;20042;-78
2022/10/08 01:54:17;;;;;;;9.30;4.95;;;21.60;60.70;;;;;;6211889;28;20522;-78
2022/10/08 01:57:18;;;;;;;9.35;4.95;;;21.70;60.70;;;;;;6219575;28;20040;-77
2022/10/08 02:00:19;;;;;;;8.25;5.28;;;21.60;60.70;;;;;;6214573;28;20356;-77
2022/10/08 02:03:20;;;;;;;12.35;5.35;;;21.60;60.70;;;;;;6231061;28;20034;-77
2022/10/08 02:06:22;;;;;;;8.02;5.57;;;21.70;60.80;;;;;;6242852;28;20037;-78
2022/10/08 02:09:25;;;;;;;7.03;4.55;;;21.60;60.90;;;;;;6244336;28;20053;-77
2022/10/08 02:12:26;;;;;;;12.50;4.60;;;21.60;61.00;;;;;;6245319;28;20381;-78
2022/10/08 02:15:51;;;;;;;11.25;5.18;;;21.60;61.10;;;;;;6243932;28;20064;-78
2022/10/08 02:19:26;;;;;;;12.15;5.10;;;21.50;61.00;;;;;;6230622;28;20044;-78
2022/10/08 02:22:36;;;;;;;8.20;4.13;;;21.50;61.10;;;;;;6237003;28;20466;-78
2022/10/08 02:25:54;;;;;;;9.05;4.20;;;21.50;60.80;;;;;;6217975;28;20037;-78
2022/10/08 02:29:14;;;;;;;8.25;4.90;;;21.40;61.10;;;;;;6224248;28;20084;-79
2022/10/08 02:32:35;;;;;;;21.13;5.43;;;21.30;61.80;;;;;;6219402;28;20483;-79
2022/10/08 02:35:50;;;;;;;6.95;4.80;;;21.20;62.90;;;;;;6234241;28;20137;-78
2022/10/08 02:38:56;;;;;;;9.55;4.32;;;21.10;63.20;;;;;;6233374;28;20049;-78
2022/10/08 02:42:02;;;;;;;13.52;4.47;;;21.00;63.50;;;;;;6237738;28;20037;-78
2022/10/08 02:45:09;;;;;;;9.60;4.40;;;20.90;63.70;;;;;;6239061;28;20029;-78
2022/10/08 02:48:17;;;;;;;7.70;4.57;;;21.00;63.80;;;;;;6239354;28;20029;-77
2022/10/08 02:51:19;;;;;;;7.68;4.03;;;20.90;63.70;;;;;;6242402;28;20041;-77
2022/10/08 02:54:22;;;;;;;7.88;4.10;;;20.90;63.50;;;;;;6243763;28;20036;-78
2022/10/08 02:57:40;;;;;;;11.02;5.03;;;21.00;63.50;;;;;;6241481;28;20049;-78
2022/10/08 03:01:25;;;;;;;8.68;4.40;;;21.00;63.40;;;;;;6241261;28;20037;-78
2022/10/08 03:04:37;;;;;;;6.30;4.40;;;21.00;63.50;;;;;;6230415;28;20128;-78
2022/10/08 03:07:38;;;;;;;14.00;4.95;;;21.10;63.50;;;;;;6219735;28;20037;-78
2022/10/08 03:10:41;;;;;;;7.68;4.85;;;21.10;63.50;;;;;;6239811;28;20037;-78
2022/10/08 03:13:47;;;;;;;6.95;4.93;;;21.10;63.50;;;;;;6242360;28;20103;-78
2022/10/08 03:16:48;;;;;;;15.73;4.70;;;21.10;63.70;;;;;;6238566;28;20037;-78
2022/10/08 03:19:50;;;;;;;12.27;5.35;;;21.10;63.90;;;;;;6187685;28;20045;-78
2022/10/08 03:22:53;;;;;;;12.63;5.88;;;21.10;64.30;;;;;;6229276;28;20545;-78
2022/10/08 03:25:54;;;;;;;19.48;5.85;;;21.10;64.60;;;;;;6240266;28;20048;-78
2022/10/08 03:28:55;;;;;;;10.70;5.22;;;21.00;64.90;;;;;;6243197;28;20045;-78
2022/10/08 03:31:56;;;;;;;10.02;5.07;;;21.00;65.10;;;;;;6240395;28;20119;-78
2022/10/08 03:34:58;;;;;;;8.88;5.53;;;21.00;65.50;;;;;;6235309;28;20462;-78
2022/10/08 03:37:59;;;;;;;13.88;5.30;;;20.90;65.80;;;;;;6247122;28;20045;-78
2022/10/08 03:41:00;;;;;;;7.93;4.95;;;20.80;66.20;;;;;;6224971;28;20501;-78
2022/10/08 03:44:01;;;;;;;9.02;5.30;;;20.80;66.50;;;;;;6240735;28;20037;-78
2022/10/08 03:47:02;;;;;;;13.38;6.07;;;20.70;66.70;;;;;;6223462;28;20080;-78
2022/10/08 03:50:05;;;;;;;11.15;5.63;;;20.70;67.20;;;;;;6223787;28;20371;-78
2022/10/08 03:53:06;;;;;;;10.48;5.30;;;20.60;67.20;;;;;;6221560;28;20482;-78
2022/10/08 03:56:14;;;;;;;14.90;6.28;;;20.60;67.50;;;;;;6223531;28;20065;-78
2022/10/08 03:59:15;;;;;;;15.85;5.90;;;20.60;67.70;;;;;;6222119;28;20434;-78
2022/10/08 04:02:16;;;;;;;11.07;5.40;;;20.60;67.80;;;;;;6222169;28;20125;-78
2022/10/08 04:05:17;;;;;;;14.18;5.47;;;20.60;67.80;;;;;;6220481;28;20038;-78
2022/10/08 04:08:18;;;;;;;13.05;5.28;;;20.70;67.90;;;;;;6221827;28;20026;-78
2022/10/08 04:11:20;;;;;;;8.85;5.18;;;20.70;67.90;;;;;;6222498;28;20052;-77
2022/10/08 04:14:21;;;;;;;11.95;5.63;;;20.70;67.70;;;;;;6216981;28;20050;-78
2022/10/08 04:17:23;;;;;;;10.40;5.45;;;20.70;67.50;;;;;;6221014;28;20045;-78
2022/10/08 04:20:25;;;;;;;8.27;5.25;;;20.70;67.30;;;;;;6219484;28;20149;-77
2022/10/08 04:23:27;;;;;;;11.40;5.63;;;20.70;67.10;;;;;;6202900;28;20042;-78
2022/10/08 04:26:28;;;;;;;7.93;5.07;;;20.80;67.10;;;;;;6219277;28;20026;-78
2022/10/08 04:29:29;;;;;;;13.90;5.78;;;20.80;67.00;;;;;;6206418;28;20068;-78
2022/10/08 04:32:30;;;;;;;10.40;5.53;;;20.90;67.00;;;;;;6206143;28;20049;-78
2022/10/08 04:35:35;;;;;;;12.00;5.53;;;20.90;66.90;;;;;;6218833;28;20034;-78
2022/10/08 04:38:37;;;;;;;11.52;5.85;;;20.90;66.90;;;;;;6219267;28;20133;-78
2022/10/08 04:41:38;;;;;;;10.25;5.15;;;20.90;66.70;;;;;;6195482;28;20048;-78
2022/10/08 04:44:40;;;;;;;12.27;5.72;;;20.90;66.70;;;;;;6204399;28;20038;-78
2022/10/08 04:47:42;;;;;;;12.77;5.63;;;20.90;66.70;;;;;;6219481;28;20046;-78
2022/10/08 04:50:43;;;;;;;18.83;5.80;;;20.90;66.70;;;;;;6221358;28;20038;-78
2022/10/08 04:53:45;;;;;;;11.10;6.03;;;20.90;66.70;;;;;;6221549;28;20042;-78
2022/10/08 04:56:46;;;;;;;14.82;7.43;;;20.90;66.90;;;;;;6225382;28;20037;-78
2022/10/08 04:59:47;;;;;;;15.23;6.47;;;20.90;67.00;;;;;;6222295;28;20109;-78
2022/10/08 05:02:49;;;;;;;9.60;5.95;;;20.90;67.10;;;;;;6221929;28;20050;-78
2022/10/08 05:05:50;;;;;;;18.02;6.57;;;20.90;67.90;;;;;;6208252;28;20033;-78
2022/10/08 05:08:51;;;;;;;9.00;5.80;;;20.90;67.10;;;;;;6222482;28;20045;-78
2022/10/08 05:11:52;;;;;;;11.60;6.53;;;20.90;67.10;;;;;;6228955;28;20048;-78
2022/10/08 05:14:53;;;;;;;11.85;6.43;;;20.90;67.10;;;;;;6246774;28;20363;-78
2022/10/08 05:17:54;;;;;;;11.00;5.45;;;20.90;67.90;;;;;;6244402;28;20041;-78
2022/10/08 05:20:55;;;;;;;10.63;6.18;;;20.90;67.10;;;;;;6240528;28;20060;-78
2022/10/08 05:23:59;;;;;;;14.48;6.25;;;20.90;67.20;;;;;;6245480;28;20049;-78
2022/10/08 05:27:00;;;;;;;11.15;6.07;;;20.80;67.10;;;;;;6204191;28;20030;-78
2022/10/08 05:30:02;;;;;;;9.93;6.10;;;20.80;67.20;;;;;;6227168;28;20045;-78
2022/10/08 05:33:03;;;;;;;8.90;5.63;;;20.80;67.30;;;;;;6218026;28;20052;-78
2022/10/08 05:36:07;;;;;;;10.30;6.95;;;20.80;67.30;;;;;;6221988;28;20362;-78
2022/10/08 05:39:09;;;;;;;10.65;6.80;;;20.80;67.40;;;;;;6231713;28;20057;-78
2022/10/08 05:42:10;;;;;;;10.25;6.15;;;20.80;67.50;;;;;;6233099;28;20030;-77
2022/10/08 05:45:11;;;;;;;16.35;6.85;;;20.80;67.50;;;;;;6237309;28;20042;-76
2022/10/08 05:48:14;;;;;;;11.35;6.43;;;20.70;67.50;;;;;;6245195;28;20042;-77
2022/10/08 05:51:17;;;;;;;11.05;5.78;;;20.80;67.60;;;;;;6244175;28;20030;-77
2022/10/08 05:54:19;;;;;;;11.02;6.22;;;20.80;67.70;;;;;;6240079;28;20105;-77
2022/10/08 05:57:20;;;;;;;13.10;6.55;;;20.80;67.60;;;;;;6236550;28;20124;-77
2022/10/08 06:00:21;;;;;;;13.38;6.03;;;20.70;67.60;;;;;;6239038;28;20042;-76
2022/10/08 06:03:22;;;;;;;11.10;6.30;;;20.80;67.80;;;;;;6245291;28;20133;-77
2022/10/08 06:06:24;;;;;;;9.52;5.90;;;20.80;67.90;;;;;;6239480;28;20042;-77
2022/10/08 06:09:25;;;;;;;11.02;6.18;;;20.80;68.00;;;;;;6230698;28;20378;-78
2022/10/08 06:12:26;;;;;;;12.90;6.05;;;20.80;67.80;;;;;;6234392;28;20056;-78
2022/10/08 06:15:27;;;;;;;11.55;6.03;;;20.80;67.80;;;;;;6236347;28;20080;-79
2022/10/08 06:18:31;;;;;;;17.38;6.43;;;20.80;67.70;;;;;;6208863;28;20038;-79
2022/10/08 06:21:33;;;;;;;13.93;6.75;;;20.90;67.60;;;;;;6227552;28;20076;-78
2022/10/08 06:24:34;;;;;;;12.27;6.40;;;20.90;67.60;;;;;;6246205;28;20041;-78
2022/10/08 06:27:35;;;;;;;12.35;5.90;;;20.90;67.60;;;;;;6231088;28;20132;-78
2022/10/08 06:30:39;;;;;;;14.10;5.75;;;20.90;67.50;;;;;;6247158;28;20041;-78
2022/10/08 06:33:40;;;;;;;10.88;5.85;;;20.90;67.60;;;;;;6245340;28;20037;-78
2022/10/08 06:36:41;;;;;;;8.02;5.43;;;20.90;67.50;;;;;;6243312;28;20136;-79
2022/10/08 06:39:42;;;;;;;12.13;5.55;;;20.90;67.40;;;;;;6214019;28;20050;-78
2022/10/08 06:42:44;;;;;;;14.32;5.43;;;20.90;67.20;;;;;;6218792;28;20046;-78
2022/10/08 06:45:46;;;;;;;7.95;5.07;;;20.90;67.10;;;;;;6236946;28;20065;-79
2022/10/08 06:48:47;;;;;;;10.85;5.20;;;20.90;67.00;;;;;;6220764;28;20037;-79
2022/10/08 06:51:48;;;;;;;11.77;5.88;;;20.90;66.80;;;;;;6240662;28;20486;-78
2022/10/08 06:54:50;;;;;;;19.65;5.50;;;20.90;66.70;;;;;;6211522;28;20042;-79
2022/10/08 06:57:52;;;;;;;11.55;5.85;;;20.90;67.50;;;;;;6215622;28;20042;-78
2022/10/08 07:01:02;;;;;;;8.98;5.35;;;21.00;66.60;;;;;;6225323;28;20067;-78
2022/10/08 07:04:04;;;;;;;9.23;5.45;;;21.00;66.50;;;;;;6225051;28;20052;-78
2022/10/08 07:07:05;;;;;;;6.88;5.20;;;21.00;66.40;;;;;;6248007;28;20060;-78
2022/10/08 07:10:07;;;;;;;11.90;5.60;;;21.00;66.20;;;;;;6233082;28;20124;-78
2022/10/08 07:13:08;;;;;;;13.52;6.05;;;21.00;66.20;;;;;;6218019;28;20030;-78
2022/10/08 07:16:12;;;;;;;7.25;5.28;;;21.00;67.10;;;;;;6223618;28;20034;-79
2022/10/08 07:19:14;;;;;;;17.40;5.75;;;21.00;66.30;;;;;;6226538;28;20375;-78
2022/10/08 07:22:15;;;;;;;9.88;5.97;;;21.10;66.40;;;;;;6223948;28;20046;-78
2022/10/08 07:25:16;;;;;;;9.25;6.03;;;21.10;66.30;;;;;;6249135;28;20045;-78
2022/10/08 07:28:18;;;;;;;10.43;6.18;;;21.20;66.30;;;;;;6248658;28;20423;-78
2022/10/08 07:31:22;;;;;;;11.00;6.07;;;21.20;66.10;;;;;;6248737;28;20044;-78
2022/10/08 07:34:23;;;;;;;11.23;6.28;;;21.20;66.00;;;;;;6232211;28;20094;-77
2022/10/08 07:37:24;;;;;;;9.05;5.95;;;21.30;66.00;;;;;;6228783;28;20061;-76
2022/10/08 07:40:34;;;;;;;13.27;7.15;;;21.30;65.90;;;;;;6234755;28;20163;-77
2022/10/08 07:43:36;;;;;;;12.60;6.55;;;21.30;65.80;;;;;;6243208;28;20452;-75
2022/10/08 07:46:43;;;;;;;11.63;6.47;;;21.30;65.60;;;;;;6240435;28;20049;-76
2022/10/08 07:49:43;;;;;;;14.20;6.70;;;21.30;65.50;;;;;;6226974;28;20049;-76
2022/10/08 07:52:44;;;;;;;13.52;6.25;;;21.30;65.40;;;;;;6238728;28;20033;-76
2022/10/08 07:55:45;;;;;;;12.77;6.38;;;21.30;65.50;;;;;;6220153;28;20044;-75
2022/10/08 07:58:48;;;;;;;14.10;6.55;;;21.40;65.50;;;;;;6222989;28;20073;-76
2022/10/08 08:01:54;;;;;;;9.63;6.93;;;21.40;65.40;;;;;;6237593;28;20107;-75
2022/10/08 08:04:57;;;;;;;17.58;7.15;;;21.50;65.30;;;;;;6154436;28;20526;-75
2022/10/08 08:07:58;;;;;;;14.43;6.63;;;21.60;65.10;;;;;;6220168;28;20038;-75
2022/10/08 08:11:01;;;;;;;11.30;6.93;;;21.70;65.10;;;;;;6242556;28;20038;-76
2022/10/08 08:14:02;;;;;;;11.60;7.00;;;21.80;65.00;;;;;;6227998;28;20045;-76
2022/10/08 08:17:03;;;;;;;11.30;7.10;;;21.90;64.50;;;;;;6237278;28;20029;-76
2022/10/08 08:20:06;;;;;;;11.65;6.70;;;22.00;64.20;;;;;;6246285;28;20123;-76
2022/10/08 08:23:07;;;;;;;15.10;7.85;;;22.10;64.10;;;;;;6240568;28;20076;-77
2022/10/08 08:26:33;;;;;;;16.17;6.15;;;22.20;63.90;;;;;;6245063;28;20040;-75
2022/10/08 08:29:34;;;;;;;11.30;6.47;;;22.30;63.70;;;;;;6204801;28;20059;-75
2022/10/08 08:32:35;;;;;;;10.85;6.30;;;22.50;62.90;;;;;;6238180;28;20037;-76
2022/10/08 08:35:36;;;;;;;10.85;5.65;;;22.50;62.20;;;;;;6232511;28;20529;-75
2022/10/08 08:38:38;;;;;;;14.95;6.88;;;22.60;62.10;;;;;;6202317;28;20038;-75
2022/10/08 08:42:07;;;;;;;12.00;6.35;;;22.60;62.80;;;;;;6203730;28;20034;-76
2022/10/08 08:45:24;;;;;;;8.73;6.38;;;22.60;61.80;;;;;;6225398;28;20634;-76
2022/10/08 08:48:31;;;;;;;10.93;5.68;;;22.70;61.70;;;;;;6222441;28;20034;-77
2022/10/08 08:51:33;;;;;;;13.10;6.93;;;22.70;61.30;;;;;;6191935;28;20240;-78
2022/10/08 08:54:34;;;;;;;12.07;6.18;;;22.80;60.80;;;;;;6216574;28;20128;-78
2022/10/08 08:58:24;;;;;;;13.57;5.95;;;22.90;61.40;;;;;;6217699;28;20136;-78
2022/10/08 09:01:35;;;;;;;8.65;5.50;;;22.90;60.00;;;;;;6203436;28;20108;-78
2022/10/08 09:04:41;;;;;;;24.30;6.75;;;23.00;59.80;;;;;;6239956;28;20045;-77
2022/10/08 09:07:50;;;;;;;12.90;6.20;;;23.00;59.80;;;;;;6223438;28;20171;-78
2022/10/08 09:11:02;;;;;;;9.98;6.68;;;23.10;59.60;;;;;;6217375;28;20462;-77
2022/10/08 09:14:13;;;;;;;8.82;6.15;;;23.10;59.60;;;;;;6238139;28;20112;-77
2022/10/08 09:17:17;;;;;;;12.00;7.20;;;23.20;59.60;;;;;;6236862;28;20086;-77
2022/10/08 09:20:22;;;;;;;15.35;7.80;;;23.20;59.50;;;;;;6244832;28;20695;-77
2022/10/08 09:23:25;;;;;;;15.23;7.72;;;23.20;59.30;;;;;;6246946;28;20124;-78
2022/10/08 09:26:31;;;;;;;23.38;7.80;;;23.30;59.30;;;;;;6246222;28;20057;-78
2022/10/08 09:29:33;;;;;;;14.57;7.90;;;23.40;59.00;;;;;;6243011;28;20040;-78
2022/10/08 09:32:38;;;;;;;12.75;7.47;;;23.50;58.80;;;;;;6230291;28;20117;-78
2022/10/08 09:35:50;;;;;;;15.40;8.50;;;23.50;58.60;;;;;;6233846;28;20041;-78
2022/10/08 09:38:58;;;;;;;17.90;7.88;;;23.60;58.50;;;;;;6240275;28;20467;-78
2022/10/08 09:42:16;;;;;;;12.17;7.30;;;23.60;58.40;;;;;;6234531;28;20029;-78
2022/10/08 09:45:32;;;;;;;12.13;6.73;;;23.60;58.50;;;;;;6229016;28;20454;-71
2022/10/08 09:48:33;;;;;;;16.10;6.95;;;23.60;58.50;;;;;;6235309;28;20111;-72
2022/10/08 09:51:35;;;;;;;17.67;7.20;;;23.60;58.40;;;;;;6236422;28;20037;-78
2022/10/08 09:54:42;;;;;;;7.70;5.28;;;23.60;58.60;;;;;;6232011;28;20072;-79
2022/10/08 09:57:46;;;;;;;10.27;6.28;;;23.60;58.60;;;;;;6232228;28;20033;-78
2022/10/08 10:01:11;;;;;;;19.40;7.15;;;23.70;58.60;;;;;;6234593;28;20378;-78
2022/10/08 10:04:40;;;;;;;18.40;6.80;;;23.70;58.30;;;;;;6221523;28;20092;-78
2022/10/08 10:07:44;;;;;;;15.07;7.28;;;23.60;58.30;;;;;;6209491;28;20116;-77
2022/10/08 10:10:47;;;;;;;12.30;7.07;;;23.50;58.30;;;;;;6210679;28;20044;-78
2022/10/08 10:13:49;;;;;;;14.18;6.70;;;23.30;58.40;;;;;;6212247;28;20034;-77
2022/10/08 10:16:58;;;;;;;58.17;12.45;;;23.30;58.60;;;;;;6201512;28;20034;-78
2022/10/08 10:20:18;;;;;;;12.43;6.68;;;23.40;58.70;;;;;;6218962;28;20034;-77
2022/10/08 10:23:37;;;;;;;11.40;6.95;;;23.50;58.70;;;;;;6242413;28;20075;-79
2022/10/08 10:26:40;;;;;;;15.23;6.80;;;23.60;58.50;;;;;;6240174;28;20040;-77
2022/10/08 10:30:08;;;;;;;14.30;6.90;;;23.70;58.40;;;;;;6227992;28;20154;-79
2022/10/08 10:33:33;;;;;;;11.90;7.30;;;23.70;58.20;;;;;;6243853;28;20043;-79
2022/10/08 10:36:40;;;;;;;14.93;7.65;;;23.70;58.00;;;;;;6240908;28;20041;-78
2022/10/08 10:39:54;;;;;;;10.32;6.97;;;23.60;58.10;;;;;;6239861;28;20045;-76
2022/10/08 10:43:21;;;;;;;12.88;7.18;;;23.60;58.30;;;;;;6239255;28;20041;-77
2022/10/08 10:46:31;;;;;;;14.48;7.78;;;23.60;58.40;;;;;;6228531;28;20095;-80
2022/10/08 11:11:17;;;;;;;10.82;7.10;;;24.10;57.50;;;;;;6267554;23;20038;-79
2022/10/08 11:14:43;;;;;;;9.20;6.38;;;24.20;57.30;;;;;;6186517;28;20174;-78
2022/10/08 11:18:09;;;;;;;13.30;7.28;;;24.30;57.10;;;;;;6171202;28;20436;-78
2022/10/08 11:21:19;;;;;;;12.88;7.25;;;24.40;56.80;;;;;;6189443;28;20484;-78
2022/10/08 11:24:23;;;;;;;10.02;6.60;;;24.50;56.60;;;;;;6168712;28;20058;-77
2022/10/08 11:27:32;;;;;;;11.15;6.32;;;24.50;56.60;;;;;;6170427;28;20061;-78
2022/10/08 11:30:51;;;;;;;13.17;6.73;;;24.50;56.30;;;;;;6172058;28;20463;-78
2022/10/08 11:33:55;;;;;;;9.85;6.43;;;24.40;56.30;;;;;;6165750;28;20054;-79
2022/10/08 11:37:11;;;;;;;12.45;7.40;;;24.40;56.40;;;;;;6168468;28;20038;-78
2022/10/08 11:40:35;;;;;;;11.35;6.68;;;24.40;56.40;;;;;;6167566;28;20034;-80
2022/10/08 11:43:45;;;;;;;13.35;7.28;;;24.40;56.50;;;;;;6187108;28;20054;-76
2022/10/08 11:46:46;;;;;;;10.32;7.32;;;24.30;56.50;;;;;;6154801;28;20046;-77
2022/10/08 11:49:54;;;;;;;15.40;7.35;;;24.30;56.70;;;;;;6194384;28;20129;-78
2022/10/08 11:53:17;;;;;;;14.32;7.22;;;24.20;56.80;;;;;;6189993;28;20030;-79
2022/10/08 11:56:19;;;;;;;10.75;6.60;;;24.20;56.80;;;;;;6189981;28;20061;-77
2022/10/08 11:59:59;;;;;;;10.70;6.63;;;24.20;56.80;;;;;;6174771;28;20061;-78
2022/10/08 12:03:04;;;;;;;12.77;7.03;;;24.30;56.80;;;;;;6120228;29;20490;-77
2022/10/08 12:06:27;;;;;;;8.82;6.25;;;24.30;56.70;;;;;;6106576;29;20031;-76
2022/10/08 12:10:00;;;;;;;11.10;6.60;;;24.30;56.70;;;;;;6115376;29;20174;-77
2022/10/08 12:13:10;;;;;;;9.38;6.65;;;24.30;56.70;;;;;;6089936;29;20102;-78
2022/10/08 12:16:12;;;;;;;10.32;6.60;;;24.30;56.70;;;;;;6091905;29;20751;-78
2022/10/08 12:19:31;;;;;;;13.48;6.97;;;24.20;56.70;;;;;;6113377;29;20119;-77
2022/10/08 12:22:32;;;;;;;11.38;6.70;;;24.20;56.70;;;;;;6114957;29;20777;-78
2022/10/08 12:25:39;;;;;;;12.77;6.65;;;24.10;56.70;;;;;;6089961;29;20029;-78
2022/10/08 12:28:46;;;;;;;11.52;6.40;;;24.10;57.40;;;;;;6095591;29;20499;-78
2022/10/08 12:32:00;;;;;;;8.60;4.75;;;24.10;56.60;;;;;;6114512;29;20169;-79
2022/10/08 12:35:01;;;;;;;7.43;4.57;;;24.10;56.50;;;;;;6088534;29;20050;-78
2022/10/08 12:38:14;;;;;;;11.32;5.47;;;24.00;56.40;;;;;;6127549;28;20049;-78
2022/10/08 12:41:25;;;;;;;10.50;5.10;;;23.90;57.20;;;;;;6163590;28;20038;-77
2022/10/08 12:44:37;;;;;;;11.32;5.13;;;23.80;56.80;;;;;;6168191;28;20050;-77
2022/10/08 12:47:50;;;;;;;9.45;4.22;;;23.70;56.80;;;;;;6160957;28;20042;-78
2022/10/08 12:51:24;;;;;;;9.30;5.22;;;23.70;56.80;;;;;;6147445;28;20034;-78
2022/10/08 12:54:28;;;;;;;15.52;5.60;;;23.60;57.00;;;;;;6169880;28;20035;-76
2022/10/08 12:57:38;;;;;;;8.13;5.40;;;23.60;57.00;;;;;;6166204;28;20053;-78
2022/10/08 13:00:41;;;;;;;10.73;5.20;;;23.60;56.90;;;;;;6161079;28;20054;-76
2022/10/08 13:03:42;;;;;;;8.77;5.47;;;23.60;56.90;;;;;;6161670;28;20057;-77
2022/10/08 13:06:44;;;;;;;11.48;6.15;;;23.60;57.00;;;;;;6147739;28;20103;-77
2022/10/08 13:09:46;;;;;;;14.35;5.90;;;23.60;57.10;;;;;;6160878;28;20118;-77
2022/10/08 13:13:26;;;;;;;8.65;5.18;;;23.60;57.10;;;;;;6154480;28;20047;-78
2022/10/08 13:16:44;;;;;;;8.30;5.32;;;23.60;57.20;;;;;;6159196;28;20035;-79
2022/10/08 13:19:45;;;;;;;7.90;5.38;;;23.60;57.20;;;;;;6159301;28;20421;-77
2022/10/08 13:22:47;;;;;;;9.88;5.63;;;23.50;57.30;;;;;;6158413;28;20062;-80
2022/10/08 13:25:48;;;;;;;7.10;5.32;;;23.50;57.50;;;;;;6156434;28;20492;-79
2022/10/08 13:28:49;;;;;;;13.55;7.20;;;23.40;57.50;;;;;;6156881;28;20031;-79
2022/10/08 13:31:59;;;;;;;10.25;6.15;;;23.40;57.80;;;;;;6163806;28;20114;-79
2022/10/08 13:35:03;;;;;;;14.82;6.05;;;23.30;58.10;;;;;;6162497;28;20321;-79
2022/10/08 13:38:07;;;;;;;8.10;5.85;;;23.30;58.20;;;;;;6165186;28;20039;-79
2022/10/08 13:41:08;;;;;;;12.57;6.00;;;23.30;58.30;;;;;;6167695;28;20122;-80
2022/10/08 13:44:09;;;;;;;20.00;7.13;;;23.20;58.40;;;;;;6161156;28;20059;-80
2022/10/08 13:47:16;;;;;;;10.57;6.47;;;23.30;58.50;;;;;;6158943;28;20494;-80
2022/10/08 13:50:18;;;;;;;12.65;7.00;;;23.20;58.60;;;;;;6139876;28;20109;-81
2022/10/08 13:53:24;;;;;;;10.65;6.68;;;23.20;58.70;;;;;;6165038;28;20035;-81
2022/10/08 13:56:25;;;;;;;9.48;6.25;;;23.20;58.90;;;;;;6169666;28;20125;-81
2022/10/08 13:59:26;;;;;;;12.55;6.55;;;23.30;59.20;;;;;;6169694;28;20053;-78
2022/10/08 14:02:27;;;;;;;11.73;6.47;;;23.20;59.30;;;;;;6168974;28;20057;-78
2022/10/08 14:05:31;;;;;;;15.07;7.75;;;23.20;59.50;;;;;;6172161;28;20050;-78
2022/10/08 14:08:33;;;;;;;10.30;7.43;;;23.20;59.70;;;;;;6155636;28;20030;-79
2022/10/08 14:11:34;;;;;;;10.55;6.70;;;23.20;59.70;;;;;;6161793;28;20065;-77
2022/10/08 14:14:35;;;;;;;12.32;6.30;;;23.20;59.70;;;;;;6176985;28;20427;-77
2022/10/08 14:17:36;;;;;;;12.57;6.72;;;23.30;59.80;;;;;;6161204;28;20034;-79
2022/10/08 14:20:38;;;;;;;10.10;6.40;;;23.20;59.80;;;;;;6175293;28;20045;-78
2022/10/08 14:23:39;;;;;;;11.98;6.72;;;23.20;59.70;;;;;;6196196;28;20348;-79
2022/10/08 14:26:40;;;;;;;12.18;6.65;;;23.20;59.70;;;;;;6195619;28;20035;-77
2022/10/08 14:29:41;;;;;;;10.75;6.70;;;23.20;59.80;;;;;;6199053;28;20031;-78
2022/10/08 14:32:42;;;;;;;14.15;7.28;;;23.10;59.70;;;;;;6178244;28;20030;-77
2022/10/08 14:35:44;;;;;;;9.02;5.88;;;23.10;59.70;;;;;;6178114;28;20030;-77
2022/10/08 14:38:45;;;;;;;13.32;6.07;;;23.10;59.70;;;;;;6177786;28;20039;-76
2022/10/08 14:41:46;;;;;;;20.13;8.43;;;23.10;59.70;;;;;;6194758;28;20038;-78
2022/10/08 14:44:47;;;;;;;10.02;6.40;;;23.10;59.80;;;;;;6178190;28;20156;-79
2022/10/08 14:47:50;;;;;;;12.73;6.18;;;23.10;59.90;;;;;;6161505;28;20329;-77
2022/10/08 14:50:51;;;;;;;11.90;6.63;;;23.00;60.00;;;;;;6175221;28;20038;-78
2022/10/08 14:53:53;;;;;;;10.35;6.00;;;23.00;60.10;;;;;;6197747;28;20030;-78
2022/10/08 14:56:54;;;;;;;15.02;7.45;;;23.00;60.30;;;;;;6178606;28;20041;-77
2022/10/08 14:59:55;;;;;;;10.70;6.38;;;22.90;60.30;;;;;;6176483;28;20179;-79
2022/10/08 15:02:57;;;;;;;11.05;6.20;;;22.90;60.50;;;;;;6175973;28;20046;-78
2022/10/08 15:05:59;;;;;;;11.90;5.10;;;22.90;60.60;;;;;;6173213;28;20527;-79
2022/10/08 15:09:01;;;;;;;8.27;4.00;;;22.90;60.70;;;;;;6168722;28;20042;-79
2022/10/08 15:12:02;;;;;;;8.77;3.83;;;22.80;60.60;;;;;;6186797;28;20053;-77
2022/10/08 15:15:04;;;;;;;6.88;3.70;;;22.80;60.50;;;;;;6185635;28;20026;-78
2022/10/08 15:18:05;;;;;;;12.07;4.50;;;22.80;60.30;;;;;;6168767;28;20046;-77
2022/10/08 15:21:09;;;;;;;11.70;4.72;;;22.80;60.20;;;;;;6178120;28;20097;-77
2022/10/08 15:24:10;;;;;;;13.00;4.88;;;22.70;60.30;;;;;;6175721;28;20068;-78
2022/10/08 15:27:11;;;;;;;9.55;5.05;;;22.80;60.40;;;;;;6197391;28;20057;-78
2022/10/08 15:30:12;;;;;;;5.30;3.78;;;22.80;60.40;;;;;;6165299;28;20062;-78
2022/10/08 15:33:13;;;;;;;8.23;3.85;;;22.80;60.30;;;;;;6200002;28;20038;-77
2022/10/08 15:36:31;;;;;;;7.78;4.32;;;22.70;60.20;;;;;;6160545;28;20039;-78
2022/10/08 15:39:33;;;;;;;11.07;4.80;;;22.70;60.20;;;;;;6180931;28;20038;-77
2022/10/08 15:42:35;;;;;;;16.88;4.20;;;22.70;60.20;;;;;;6178988;28;20360;-78
2022/10/08 15:45:41;;;;;;;10.38;4.40;;;22.70;60.20;;;;;;6198640;28;20037;-78
2022/10/08 15:48:50;;;;;;;8.60;4.20;;;22.60;60.20;;;;;;6198838;28;20088;-78
2022/10/08 15:51:51;;;;;;;9.20;5.03;;;22.60;60.10;;;;;;6199113;28;20054;-77
2022/10/08 15:54:52;;;;;;;7.72;4.80;;;22.60;60.00;;;;;;6199149;28;20045;-78
2022/10/08 15:57:53;;;;;;;9.15;4.60;;;22.60;60.10;;;;;;6180001;28;20037;-78
2022/10/08 16:00:54;;;;;;;6.25;4.40;;;22.60;60.00;;;;;;6176326;28;20026;-79
2022/10/08 16:03:57;;;;;;;9.90;4.38;;;22.60;60.00;;;;;;6180359;28;20353;-79
2022/10/08 16:06:58;;;;;;;16.83;4.38;;;22.60;59.90;;;;;;6177265;28;20044;-81
2022/10/08 16:09:59;;;;;;;14.82;5.50;;;22.60;60.00;;;;;;6169397;28;20050;-79
2022/10/08 16:13:00;;;;;;;8.52;4.38;;;22.50;60.00;;;;;;6165287;28;20035;-80
2022/10/08 16:16:03;;;;;;;11.52;4.68;;;22.50;60.20;;;;;;6164926;28;20071;-80
2022/10/08 16:19:09;;;;;;;10.00;4.13;;;22.50;60.10;;;;;;6170798;28;20058;-80
2022/10/08 16:22:10;;;;;;;12.70;4.32;;;22.50;60.00;;;;;;6151515;28;20439;-80